Airbus A337 at Albert on Nov 18th 2022, runway excursion on backtrack

Last Update: November 19, 2022 / 23:07:14 GMT/Zulu time

Bookmark this article
Incident Facts

Date of incident
Nov 18, 2022

Classification
Incident

Flight number
BG-127N

Destination
Albert, France

Aircraft Registration
F-GXLN

Airport ICAO Code
LFAQ

An Airbus Transport International Airbus A330-700 Beluga (Beluga 5 XL), registration F-GXLN performing flight BG-127N from Montoir to Albert (France), landed on runway 27 at 12:43L (11:43Z), rolled to the end, turned into the turn pad to begin the 180 degrees turn for backtracking, and completed about 135 degrees of the turn but then became disabled with the nose and right hand main gear off the paved surface in the grass.

The aircraft is still not removed from the position, the runway is still closed.

Related NOTAMs:
C3697/22 NOTAMR C3686/22
Q) LFFF/QMRLC/IV/NBO/A /000/999/4958N00242E005
A) LFAQ B) 2211181551 C) 2211222359
E) PAVED RWY 09/27 CLSD.

C3686/22 NOTAMN
Q) LFFF/QMRLC/IV/NBO/A /000/999/4958N00242E005
A) LFAQ B) 2211181225 C) 2211182359
E) PAVED RWY 09/27 CLSD

Metars:
LFAQ 181300Z AUTO 25010KT 9999 SCT016 OVC160 11/09 Q1003 TEMPO 4000 SHRA BKN014 FEW040TCU=
LFAQ 181230Z AUTO 24012KT 9999 SCT016 BKN160 11/08 Q1003 TEMPO 4000 SHRA BKN014 FEW040TCU=
LFAQ 181200Z AUTO 24014KT 9999 FEW014 11/09 Q1003 TEMPO 4000 SHRA BKN014 FEW040TCU=
LFAQ 181130Z AUTO 24014KT 9999 SCT014 11/09 Q1003 TEMPO 4000 SHRA BKN014 FEW040TCU=
LFAQ 181100Z AUTO 23013KT 9999 SCT012 11/09 Q1003 TEMPO 4000 SHRA BKN014 FEW020TCU=
LFAQ 181030Z AUTO 23013KT 9999 FEW010 SCT050 BKN060 09/09 Q1003 TEMPO 4000 SHRA BKN014 FEW020TCU=
LFAQ 181000Z AUTO 22010KT 9999 FEW036/// BKN058/// OVC078/// ///TCU 09/09 Q1002 TEMPO 4000 SHRA BKN014 FEW020TCU=
LFAQ 180930Z AUTO 23011KT 9999 RA SCT041/// BKN049/// OVC058/// ///TCU 09/09 Q1002 TEMPO 4000 SHRA BKN014 FEW020TCU=
LFAQ 180900Z AUTO 24010KT 9999 -RA FEW039/// BKN048/// OVC064/// ///TCU 08/08 Q1002 TEMPO 4000 SHRA BKN014 FEW020TCU=
Incident Facts

Date of incident
Nov 18, 2022

Classification
Incident

Flight number
BG-127N

Destination
Albert, France

Aircraft Registration
F-GXLN

Airport ICAO Code
LFAQ

This article is published under license from Avherald.com. © of text by Avherald.com.
Article source

You can read 2 more free articles without a subscription.

Subscribe now and continue reading without any limits!

Are you a subscriber? Login
Subscribe

Read unlimited articles and receive our daily update briefing. Gain better insights into what is happening in commercial aviation safety.

Free newsletter

Want to know more and stay ahead? Get our free weekly newsletter and join 5464 existing subscribers.

By subscribing, you accept our terms and conditions and confirm that you've read our privacy policy.

Send tip

Support AeroInside by sending a small tip amount.

Newest articles

Subscribe today

Are you researching aviation incidents? Get access to AeroInside Insights, unlimited read access and receive the daily newsletter.

Pick your plan and subscribe

Partner

Blockaviation logo

A new way to document and demonstrate airworthiness compliance and aircraft value. Find out more.

Virtual Speech logo

ELITE Simulation Solutions is a leading global provider of Flight Simulation Training Devices, IFR training software as well as flight controls and related services. Find out more.

Get updates

Never miss an article from AeroInside. Subscribe to our free weekly newsletter and join 5464 existing subscribers.

By subscribing, you accept our terms and conditions and that you've read our privacy policy.

AeroInside Blog
Popular aircraft
Airbus A320
Boeing 737-800
Boeing 737-800 MAX
Popular airlines
American Airlines
United
Delta
Air Canada
Lufthansa
British Airways